Terminal Aerodrome Forecast
Issued by NWS Pocatello, ID

Home | Current Version | Previous Version | Text Only | Print | Product List | Glossary On
Versions: 1 2 3 4 5 6 7 8 9 10 11 12
000
FTUS45 KPIH 171100
TAFBYI
TAF
KBYI 171120Z 1712/1812 VRB03KT P6SM BKN110 BKN200
     FM171600 VRB05KT P6SM SCT090 BKN200
     FM180600 VRB05KT P6SM VCSH BKN090 BKN150=

USA.gov is the U.S. government's official web portal to all federal, state and local government web resources and services.